createdAt,value
2023-12-11T00:01:34.752Z,44.72
2023-12-11T00:04:02.183Z,43.30
2023-12-11T00:06:29.373Z,43.70
2023-12-11T00:08:56.357Z,45.00
2023-12-11T00:11:24.103Z,43.60
2023-12-11T00:13:51.063Z,45.15
2023-12-11T00:16:18.503Z,45.20
2023-12-11T00:18:45.791Z,43.63
2023-12-11T00:21:12.996Z,44.47
2023-12-11T00:23:39.920Z,46.45
2023-12-11T00:26:07.040Z,46.72
2023-12-11T00:28:33.970Z,49.25
2023-12-11T00:31:02.689Z,50.50
2023-12-11T00:33:30.055Z,49.70
2023-12-11T00:35:57.248Z,52.97
2023-12-11T00:38:24.247Z,61.05
2023-12-11T00:40:51.878Z,65.05
2023-12-11T00:43:19.590Z,66.57
2023-12-11T00:45:46.581Z,61.80
2023-12-11T00:48:13.750Z,59.13
2023-12-11T00:50:40.741Z,55.17
2023-12-11T00:53:08.518Z,57.60
2023-12-11T00:55:35.577Z,56.15
2023-12-11T00:58:02.601Z,55.13
2023-12-11T01:00:29.651Z,53.13
2023-12-11T01:02:56.790Z,52.75
2023-12-11T01:05:23.860Z,52.08
2023-12-11T01:07:51.274Z,50.40
2023-12-11T01:10:18.389Z,56.92
2023-12-11T01:12:45.683Z,53.38
2023-12-11T01:15:12.680Z,55.78
2023-12-11T01:17:41.055Z,55.53
2023-12-11T01:20:09.521Z,54.47
2023-12-11T01:22:36.853Z,54.38
2023-12-11T01:25:04.872Z,57.22
2023-12-11T01:27:32.529Z,57.97
2023-12-11T01:30:00.147Z,58.30
2023-12-11T01:32:30.258Z,58.13
2023-12-11T01:34:58.336Z,59.47
2023-12-11T01:37:25.299Z,60.13
2023-12-11T01:39:52.332Z,60.30
2023-12-11T01:42:19.370Z,63.33
2023-12-11T01:44:46.371Z,63.15
2023-12-11T01:47:13.852Z,61.70
2023-12-11T01:49:40.846Z,62.25
2023-12-11T01:52:08.864Z,62.60
2023-12-11T01:54:37.441Z,62.75
2023-12-11T01:57:04.621Z,63.88
2023-12-11T01:59:31.665Z,65.43
2023-12-11T02:02:00.739Z,66.47
2023-12-11T02:04:27.873Z,63.13
2023-12-11T02:06:55.043Z,56.88
2023-12-11T02:09:22.061Z,60.13
2023-12-11T02:11:49.047Z,59.63
2023-12-11T02:14:16.003Z,57.10
2023-12-11T02:16:43.045Z,56.58
2023-12-11T02:19:10.102Z,54.50
2023-12-11T02:21:37.161Z,52.47
2023-12-11T02:24:07.569Z,54.25
2023-12-11T02:26:34.695Z,53.38
2023-12-11T02:29:01.654Z,53.50
2023-12-11T02:31:28.614Z,52.92
2023-12-11T02:33:55.675Z,52.75
2023-12-11T02:36:22.735Z,51.70
2023-12-11T02:38:49.774Z,47.45
2023-12-11T02:41:16.893Z,47.83
2023-12-11T02:43:43.902Z,48.22
2023-12-11T02:46:10.932Z,48.63
2023-12-11T02:48:38.120Z,49.00
2023-12-11T02:51:05.393Z,44.30
2023-12-11T02:53:32.520Z,44.65
2023-12-11T02:55:59.550Z,44.78
2023-12-11T02:58:26.513Z,43.13
2023-12-11T03:00:53.874Z,37.63
2023-12-11T03:03:20.947Z,39.53
2023-12-11T03:05:47.960Z,38.45
2023-12-11T03:08:15.033Z,39.97
2023-12-11T03:10:42.107Z,37.58
2023-12-11T03:13:09.079Z,38.22
2023-12-11T03:15:36.186Z,34.50
2023-12-11T03:18:03.322Z,36.00
2023-12-11T03:20:30.455Z,30.33
2023-12-11T03:22:57.446Z,25.20
2023-12-11T03:25:24.530Z,26.52
2023-12-11T03:27:52.639Z,28.00
2023-12-11T03:30:19.739Z,29.50
2023-12-11T03:32:46.692Z,33.03
2023-12-11T03:35:13.678Z,29.23
2023-12-11T03:37:40.669Z,33.08
2023-12-11T03:40:08.035Z,37.20
2023-12-11T03:42:35.165Z,40.50
2023-12-11T03:45:02.279Z,36.38
2023-12-11T03:47:29.590Z,34.85
2023-12-11T03:49:57.033Z,36.40
2023-12-11T03:52:24.134Z,39.00
2023-12-11T03:54:51.218Z,39.90
2023-12-11T03:57:18.181Z,44.90
2023-12-11T03:59:45.256Z,51.03
2023-12-11T04:02:12.620Z,54.20
2023-12-11T04:04:39.826Z,47.95
2023-12-11T04:07:07.006Z,48.35
2023-12-11T04:09:34.090Z,47.35
2023-12-11T04:12:01.154Z,48.40
2023-12-11T04:14:28.222Z,47.97
2023-12-11T04:16:55.188Z,44.53
2023-12-11T04:19:22.339Z,43.53
2023-12-11T04:21:49.538Z,44.22
2023-12-11T04:24:16.589Z,42.90
2023-12-11T04:26:43.586Z,38.33
2023-12-11T04:29:10.740Z,35.50
2023-12-11T04:31:37.738Z,36.38
2023-12-11T04:34:04.903Z,33.65
2023-12-11T04:36:32.063Z,34.15
2023-12-11T04:38:59.077Z,33.22
2023-12-11T04:41:26.197Z,29.30
2023-12-11T04:43:53.284Z,28.90
2023-12-11T04:46:20.356Z,29.85
2023-12-11T04:48:47.480Z,27.20
2023-12-11T04:51:15.010Z,23.83
2023-12-11T04:53:42.051Z,31.55
2023-12-11T04:56:09.509Z,36.03
2023-12-11T04:58:36.595Z,47.42
2023-12-11T05:01:04.115Z,53.65
2023-12-11T05:03:31.402Z,57.25
2023-12-11T05:05:58.482Z,55.78
2023-12-11T05:08:29.061Z,52.97
2023-12-11T05:10:58.879Z,56.55
2023-12-11T05:13:25.922Z,57.83
2023-12-11T05:15:53.044Z,53.90
2023-12-11T05:18:20.258Z,54.45
2023-12-11T05:20:47.367Z,52.50
2023-12-11T05:23:14.375Z,50.05
2023-12-11T05:25:41.393Z,50.58
2023-12-11T05:28:08.347Z,52.47
2023-12-11T05:30:35.449Z,54.80
2023-12-11T05:33:02.697Z,51.58
2023-12-11T05:35:29.781Z,48.95
2023-12-11T05:37:59.605Z,42.25
2023-12-11T05:40:29.477Z,43.08
2023-12-11T05:42:56.470Z,43.25
2023-12-11T05:45:24.141Z,42.15
2023-12-11T05:47:51.260Z,41.22
2023-12-11T05:50:18.622Z,42.53
2023-12-11T05:52:45.828Z,44.35
2023-12-11T05:55:13.329Z,46.75
2023-12-11T05:57:40.430Z,48.78
2023-12-11T06:00:08.960Z,47.65
2023-12-11T06:02:36.281Z,45.05
2023-12-11T06:05:04.028Z,43.83
2023-12-11T06:07:31.384Z,48.08
2023-12-11T06:09:58.554Z,48.88
2023-12-11T06:12:26.705Z,49.65
2023-12-11T06:14:53.793Z,49.92
2023-12-11T06:17:22.193Z,47.15
2023-12-11T06:19:49.243Z,42.88
2023-12-11T06:22:16.298Z,41.45
2023-12-11T06:24:43.569Z,45.50
2023-12-11T06:27:11.480Z,46.38
2023-12-11T06:29:39.668Z,45.33
2023-12-11T06:32:06.915Z,49.80
2023-12-11T06:34:35.121Z,44.63
2023-12-11T06:37:02.495Z,40.47
2023-12-11T06:39:30.001Z,37.65
2023-12-11T06:41:58.778Z,42.00
2023-12-11T06:44:26.835Z,40.38
2023-12-11T06:46:54.650Z,39.58
2023-12-11T06:49:22.372Z,39.08
2023-12-11T06:51:49.856Z,39.72
2023-12-11T06:54:18.017Z,39.80
2023-12-11T06:56:45.009Z,45.65
2023-12-11T06:59:12.048Z,52.05
2023-12-11T07:01:39.347Z,51.15
2023-12-11T07:04:07.245Z,48.97
2023-12-11T07:06:34.741Z,51.63
2023-12-11T07:09:02.138Z,50.22
2023-12-11T07:11:29.132Z,51.35
2023-12-11T07:13:56.467Z,52.28
2023-12-11T07:16:26.632Z,51.40
2023-12-11T07:18:54.601Z,54.00
2023-12-11T07:21:21.804Z,51.80
2023-12-11T07:23:51.961Z,49.17
2023-12-11T07:26:19.028Z,51.47
2023-12-11T07:28:46.030Z,51.08
2023-12-11T07:31:13.385Z,54.03
2023-12-11T07:33:40.536Z,51.47
2023-12-11T07:36:07.892Z,52.80
2023-12-11T07:38:34.938Z,55.13
2023-12-11T07:41:04.409Z,55.72
2023-12-11T07:43:33.278Z,56.67
2023-12-11T07:46:01.540Z,59.42
2023-12-11T07:48:30.172Z,59.30
2023-12-11T07:50:57.714Z,54.10
2023-12-11T07:53:24.954Z,49.63
2023-12-11T07:55:52.456Z,48.38
2023-12-11T07:58:19.671Z,48.85
2023-12-11T08:00:46.909Z,45.42
2023-12-11T08:03:14.005Z,44.17
2023-12-11T08:05:41.180Z,45.55
2023-12-11T08:08:08.291Z,47.15
2023-12-11T08:10:35.330Z,47.83
2023-12-11T08:13:02.527Z,48.08
2023-12-11T08:15:30.897Z,60.15
2023-12-11T08:17:57.939Z,56.17
2023-12-11T08:20:25.532Z,51.10
2023-12-11T08:22:53.273Z,49.83
2023-12-11T08:25:20.372Z,58.70
2023-12-11T08:27:47.460Z,59.15
2023-12-11T08:30:14.502Z,63.85
2023-12-11T08:32:41.881Z,60.72
2023-12-11T08:35:09.815Z,75.45
2023-12-11T08:37:37.286Z,66.40
2023-12-11T08:40:06.430Z,57.97
2023-12-11T08:42:38.927Z,60.85
2023-12-11T08:45:08.603Z,61.97
2023-12-11T08:47:39.071Z,66.10
2023-12-11T08:52:34.677Z,60.72
2023-12-11T08:55:01.749Z,62.92
2023-12-11T08:57:30.409Z,64.72
2023-12-11T08:59:58.706Z,63.10
2023-12-11T09:02:25.866Z,63.85
2023-12-11T09:04:53.088Z,64.32
2023-12-11T09:07:20.338Z,69.50
2023-12-11T09:09:47.534Z,90.90
2023-12-11T09:12:23.447Z,81.05
2023-12-11T09:14:58.180Z,90.90
2023-12-11T09:17:25.421Z,89.32
2023-12-11T09:19:55.716Z,87.40
2023-12-11T09:22:24.080Z,88.65
2023-12-11T09:24:51.664Z,87.72
2023-12-11T09:27:18.722Z,81.80
2023-12-11T09:29:49.688Z,80.40
2023-12-11T09:32:17.434Z,88.32
2023-12-11T09:34:44.739Z,80.43
2023-12-11T09:37:11.993Z,96.38
2023-12-11T09:39:40.835Z,84.00
2023-12-11T09:42:08.966Z,70.18
2023-12-11T09:44:36.954Z,65.90
2023-12-11T09:47:10.644Z,67.05
2023-12-11T09:49:37.924Z,66.72
2023-12-11T09:52:05.113Z,77.45
2023-12-11T09:54:32.156Z,76.07
2023-12-11T09:57:00.202Z,70.50
2023-12-11T09:59:29.083Z,56.25
2023-12-11T10:01:56.954Z,60.15
2023-12-11T10:04:28.596Z,67.97
2023-12-11T10:06:56.461Z,87.57
2023-12-11T10:09:29.746Z,84.85
2023-12-11T10:11:58.560Z,96.10
2023-12-11T10:14:25.852Z,83.32
2023-12-11T10:16:52.954Z,60.67
2023-12-11T10:19:30.433Z,53.25
2023-12-11T10:21:57.532Z,50.53
2023-12-11T10:24:24.645Z,46.72
2023-12-11T10:26:55.880Z,51.53
2023-12-11T10:29:27.258Z,56.20
2023-12-11T10:34:40.476Z,60.78
2023-12-11T10:37:07.751Z,80.97
2023-12-11T10:39:34.866Z,72.82
2023-12-11T10:42:17.623Z,58.42
2023-12-11T10:44:50.150Z,59.08
2023-12-11T10:47:21.057Z,57.45
2023-12-11T10:49:48.119Z,77.80
2023-12-11T10:52:15.161Z,64.95
2023-12-11T10:54:45.008Z,77.72
2023-12-11T10:57:16.674Z,80.43
2023-12-11T10:59:46.460Z,95.80
2023-12-11T11:02:18.190Z,106.35
2023-12-11T11:04:46.638Z,118.43
2023-12-11T11:07:19.885Z,72.43
2023-12-11T11:09:58.931Z,75.47
2023-12-11T11:12:44.806Z,98.63
2023-12-11T11:15:11.882Z,79.90
2023-12-11T11:17:57.599Z,104.32
2023-12-11T11:20:25.694Z,158.57
2023-12-11T11:22:52.965Z,109.03
2023-12-11T11:25:29.341Z,62.13
2023-12-11T11:27:56.355Z,128.82
2023-12-11T11:30:41.899Z,53.42
2023-12-11T11:33:12.095Z,43.33
2023-12-11T11:35:49.203Z,42.40
2023-12-11T11:38:18.546Z,87.43
2023-12-11T11:40:45.905Z,60.60
2023-12-11T11:43:14.459Z,56.42
2023-12-11T11:45:41.548Z,57.00
2023-12-11T11:48:09.000Z,48.47
2023-12-11T11:50:36.563Z,53.00
2023-12-11T11:53:08.292Z,52.05
2023-12-11T11:55:37.728Z,59.70
2023-12-11T11:58:14.564Z,54.85
2023-12-11T12:00:42.057Z,54.15
2023-12-11T12:03:12.288Z,66.30
2023-12-11T12:05:52.630Z,62.80
2023-12-11T12:08:19.716Z,55.13
2023-12-11T12:10:46.656Z,56.58
2023-12-11T12:13:13.685Z,57.50
2023-12-11T12:15:44.817Z,59.35
2023-12-11T12:18:13.681Z,58.53
2023-12-11T12:20:40.883Z,66.53
2023-12-11T12:23:07.939Z,67.82
2023-12-11T12:25:35.987Z,63.70
2023-12-11T12:28:05.661Z,80.50
2023-12-11T12:30:34.965Z,69.55
2023-12-11T12:33:02.951Z,60.42
2023-12-11T12:35:31.057Z,57.08
2023-12-11T12:37:58.453Z,56.38
2023-12-11T12:40:25.573Z,59.17
2023-12-11T12:42:53.020Z,71.75
2023-12-11T12:45:35.312Z,52.65
2023-12-11T12:48:04.261Z,62.47
2023-12-11T12:50:31.479Z,64.03
2023-12-11T12:53:09.431Z,60.08
2023-12-11T12:55:37.890Z,64.70
2023-12-11T12:58:05.800Z,62.22
2023-12-11T13:00:36.206Z,61.65
2023-12-11T13:03:04.371Z,62.13
2023-12-11T13:05:45.361Z,49.50
2023-12-11T13:08:12.892Z,54.00
2023-12-11T13:10:52.365Z,58.35
2023-12-11T13:13:22.776Z,48.83
2023-12-11T13:15:49.915Z,42.85
2023-12-11T13:18:17.101Z,42.08
2023-12-11T13:20:44.403Z,41.88
2023-12-11T13:23:11.591Z,40.22
2023-12-11T13:25:38.930Z,39.17
2023-12-11T13:28:06.044Z,37.25
2023-12-11T13:30:33.518Z,37.03
2023-12-11T13:33:00.601Z,42.35
2023-12-11T13:35:27.802Z,42.53
2023-12-11T13:37:54.740Z,41.38
2023-12-11T13:40:22.226Z,41.70
2023-12-11T13:42:49.744Z,36.08
2023-12-11T13:45:17.922Z,36.75
2023-12-11T13:47:45.111Z,33.13
2023-12-11T13:50:12.394Z,35.58
2023-12-11T13:52:39.813Z,34.75
2023-12-11T13:55:07.011Z,43.25
2023-12-11T13:57:35.156Z,47.88
2023-12-11T14:00:02.173Z,41.83
2023-12-11T14:02:58.900Z,45.92
2023-12-11T14:05:16.560Z,49.30
2023-12-11T14:07:43.690Z,50.30
2023-12-11T14:10:11.370Z,48.95
2023-12-11T14:12:39.067Z,51.97
2023-12-11T14:15:06.593Z,56.90
2023-12-11T14:17:34.259Z,54.80
2023-12-11T14:20:01.900Z,50.92
2023-12-11T14:22:30.617Z,58.03
2023-12-11T14:24:57.685Z,42.72
2023-12-11T14:27:24.900Z,43.53
2023-12-11T14:29:54.651Z,38.58
2023-12-11T14:32:21.646Z,41.10
2023-12-11T14:34:48.788Z,44.30
2023-12-11T14:37:17.905Z,45.58
2023-12-11T14:39:45.305Z,44.88
2023-12-11T14:42:12.381Z,86.95
2023-12-11T14:44:39.988Z,75.47
2023-12-11T14:47:07.817Z,52.83
2023-12-11T14:49:36.069Z,48.72
2023-12-11T14:52:03.595Z,49.03
2023-12-11T14:54:30.676Z,49.50
2023-12-11T14:56:58.229Z,48.15
2023-12-11T14:59:25.347Z,49.50
2023-12-11T15:01:52.511Z,48.35
2023-12-11T15:04:19.715Z,54.33
2023-12-11T15:06:47.274Z,57.45
2023-12-11T15:09:16.592Z,54.92
2023-12-11T15:11:44.009Z,59.53
2023-12-11T15:14:13.251Z,58.28
2023-12-11T15:16:42.464Z,60.78
2023-12-11T15:19:10.172Z,58.58
2023-12-11T15:21:37.647Z,60.58
2023-12-11T15:24:04.856Z,58.63
2023-12-11T15:26:31.869Z,75.32
2023-12-11T15:29:03.573Z,75.32
2023-12-11T15:31:30.684Z,69.97
2023-12-11T15:33:57.812Z,85.82
2023-12-11T15:36:24.963Z,87.78
2023-12-11T15:38:53.019Z,79.40
2023-12-11T15:41:20.729Z,81.55
2023-12-11T15:43:47.699Z,86.60
2023-12-11T15:46:15.133Z,91.28
2023-12-11T15:48:46.369Z,91.57
2023-12-11T15:51:17.351Z,90.55
2023-12-11T15:53:45.820Z,85.20
2023-12-11T15:56:14.373Z,83.60
2023-12-11T15:58:41.490Z,81.70
2023-12-11T16:01:10.249Z,78.05
2023-12-11T16:03:37.967Z,81.35
2023-12-11T16:06:05.609Z,87.18
2023-12-11T16:08:33.159Z,85.50
2023-12-11T16:11:00.087Z,83.65
2023-12-11T16:13:27.246Z,94.43
2023-12-11T16:15:57.195Z,93.65
2023-12-11T16:18:24.314Z,89.50
2023-12-11T16:20:51.453Z,81.25
2023-12-11T16:23:18.481Z,78.15
2023-12-11T16:25:51.686Z,81.72
2023-12-11T16:28:27.010Z,95.45
2023-12-11T16:30:54.388Z,91.35
2023-12-11T16:33:21.738Z,132.40
2023-12-11T16:35:48.820Z,118.97
2023-12-11T16:38:15.763Z,127.57
2023-12-11T16:40:44.048Z,131.98
2023-12-11T16:43:11.281Z,133.02
2023-12-11T16:45:38.562Z,172.52
2023-12-11T16:48:05.805Z,177.02
2023-12-11T16:50:33.032Z,160.02
2023-12-11T16:53:00.074Z,143.77
2023-12-11T16:55:27.120Z,142.52
2023-12-11T16:57:56.621Z,167.82
2023-12-11T17:00:25.504Z,159.80
2023-12-11T17:02:52.696Z,124.90
2023-12-11T17:05:20.278Z,108.75
2023-12-11T17:07:47.296Z,118.50
2023-12-11T17:10:17.468Z,146.30
2023-12-11T17:12:44.570Z,140.23
2023-12-11T17:15:11.549Z,142.38
2023-12-11T17:17:38.764Z,144.75
2023-12-11T17:20:06.160Z,158.20
2023-12-11T17:22:33.160Z,162.80
2023-12-11T17:25:00.973Z,163.63
2023-12-11T17:27:28.257Z,139.35
2023-12-11T17:29:55.359Z,148.65
2023-12-11T17:32:22.368Z,137.93
2023-12-11T17:34:49.583Z,138.48
2023-12-11T17:37:16.793Z,130.98
2023-12-11T17:39:43.981Z,130.38
2023-12-11T17:42:11.094Z,133.73
2023-12-11T17:44:38.070Z,148.40
2023-12-11T17:47:05.121Z,163.50
2023-12-11T17:49:32.210Z,148.63
2023-12-11T17:52:00.333Z,138.90
2023-12-11T17:54:29.590Z,136.57
2023-12-11T17:56:56.880Z,133.30
2023-12-11T17:59:23.915Z,126.65
2023-12-11T18:01:50.975Z,120.47
2023-12-11T18:04:18.027Z,120.93
2023-12-11T18:06:45.086Z,117.32
2023-12-11T18:09:12.043Z,110.85
2023-12-11T18:11:39.056Z,109.00
2023-12-11T18:14:05.978Z,101.72
2023-12-11T18:16:33.541Z,94.53
2023-12-11T18:19:00.861Z,94.90
2023-12-11T18:21:29.020Z,88.65
2023-12-11T18:23:55.983Z,96.32
2023-12-11T18:26:23.054Z,96.15
2023-12-11T18:28:50.143Z,85.55
2023-12-11T18:31:17.171Z,81.47
2023-12-11T18:33:44.388Z,71.43
2023-12-11T18:36:12.597Z,86.85
2023-12-11T18:38:39.525Z,90.47
2023-12-11T18:41:06.900Z,97.72
2023-12-11T18:43:35.760Z,100.82
2023-12-11T18:46:03.490Z,117.05
2023-12-11T18:48:30.698Z,156.52
2023-12-11T18:50:57.659Z,125.28
2023-12-11T18:53:24.591Z,89.47
2023-12-11T18:56:01.025Z,85.28
2023-12-11T18:58:29.620Z,81.13
2023-12-11T19:00:58.448Z,82.90
2023-12-11T19:03:25.553Z,90.07
2023-12-11T19:05:52.577Z,90.65
2023-12-11T19:08:19.901Z,93.85
2023-12-11T19:10:46.854Z,91.97
2023-12-11T19:13:13.882Z,98.90
2023-12-11T19:15:41.177Z,116.55
2023-12-11T19:18:08.388Z,110.47
2023-12-11T19:20:35.523Z,109.80
2023-12-11T19:23:02.790Z,122.47
2023-12-11T19:25:29.922Z,122.13
2023-12-11T19:27:56.994Z,116.07
2023-12-11T19:30:25.743Z,109.75
2023-12-11T19:32:52.730Z,105.32
2023-12-11T19:35:19.754Z,86.95
2023-12-11T19:37:47.371Z,70.18
2023-12-11T19:40:14.315Z,79.47
2023-12-11T19:42:48.500Z,77.03
2023-12-11T19:45:16.520Z,75.45
2023-12-11T19:47:46.008Z,72.60
2023-12-11T19:50:13.297Z,64.95
2023-12-11T19:52:50.356Z,61.78
2023-12-11T19:55:19.158Z,68.20
2023-12-11T19:57:46.372Z,68.95
2023-12-11T20:00:13.656Z,84.80
2023-12-11T20:02:40.627Z,96.25
2023-12-11T20:05:07.831Z,100.22
2023-12-11T20:07:35.258Z,111.03
2023-12-11T20:10:02.766Z,123.60
2023-12-11T20:12:35.312Z,99.32
2023-12-11T20:15:02.381Z,84.68
2023-12-11T20:17:29.700Z,73.45
2023-12-11T20:20:01.129Z,69.68
2023-12-11T20:24:57.924Z,87.97
2023-12-11T20:27:24.905Z,107.20
2023-12-11T20:29:51.901Z,122.78
2023-12-11T20:32:18.944Z,125.40
2023-12-11T20:34:46.290Z,120.22
2023-12-11T20:37:14.458Z,119.97
2023-12-11T20:39:43.867Z,120.07
2023-12-11T20:42:10.854Z,156.90
2023-12-11T20:44:37.922Z,157.10
2023-12-11T20:47:04.979Z,151.60
2023-12-11T20:49:34.364Z,153.75
2023-12-11T20:52:01.496Z,159.07
2023-12-11T20:54:28.872Z,164.48
2023-12-11T20:56:55.794Z,160.98
2023-12-11T20:59:22.704Z,163.90
2023-12-11T21:01:50.089Z,168.75
2023-12-11T21:04:17.281Z,178.20
2023-12-11T21:06:44.468Z,170.57
2023-12-11T21:09:13.877Z,169.73
2023-12-11T21:11:40.817Z,173.07
2023-12-11T21:14:07.837Z,180.50
2023-12-11T21:16:35.399Z,182.60
2023-12-11T21:19:04.142Z,188.05
2023-12-11T21:21:31.590Z,199.63
2023-12-11T21:23:58.600Z,230.00
2023-12-11T21:26:26.245Z,225.55
2023-12-11T21:28:54.055Z,219.73
2023-12-11T21:31:27.069Z,211.80
2023-12-11T21:33:55.223Z,208.25
2023-12-11T21:36:23.613Z,210.45
2023-12-11T21:38:51.236Z,173.20
2023-12-11T21:41:18.223Z,147.30
2023-12-11T21:43:46.335Z,139.15
2023-12-11T21:46:14.330Z,126.32
2023-12-11T21:48:41.889Z,131.02
2023-12-11T21:51:09.016Z,140.70
2023-12-11T21:53:36.081Z,151.98
2023-12-11T21:56:03.114Z,137.77
2023-12-11T21:58:30.326Z,122.13
2023-12-11T22:00:57.826Z,108.95
2023-12-11T22:03:25.027Z,115.30
2023-12-11T22:05:52.745Z,118.95
2023-12-11T22:08:19.936Z,129.82
2023-12-11T22:10:47.778Z,146.82
2023-12-11T22:13:14.806Z,142.50
2023-12-11T22:15:42.174Z,158.55
2023-12-11T22:18:10.512Z,165.30
2023-12-11T22:20:38.861Z,179.50
2023-12-11T22:23:06.167Z,99.20
2023-12-11T22:25:33.140Z,97.78
2023-12-11T22:28:00.145Z,85.88
2023-12-11T22:30:27.184Z,72.55
2023-12-11T22:32:55.405Z,70.78
2023-12-11T22:35:22.400Z,80.18
2023-12-11T22:37:49.396Z,73.60
2023-12-11T22:40:16.533Z,72.13
2023-12-11T22:42:43.552Z,71.47
2023-12-11T22:45:10.688Z,71.68
2023-12-11T22:47:38.182Z,73.03
2023-12-11T22:50:05.460Z,72.80
2023-12-11T22:52:32.732Z,75.72
2023-12-11T22:54:59.790Z,78.03
2023-12-11T22:57:26.766Z,85.72
2023-12-11T22:59:53.807Z,83.47
2023-12-11T23:02:20.745Z,85.80
2023-12-11T23:04:47.759Z,90.65
2023-12-11T23:07:14.827Z,90.65
2023-12-11T23:09:41.766Z,92.03
2023-12-11T23:12:08.712Z,90.18
2023-12-11T23:14:35.758Z,85.35
2023-12-11T23:17:03.123Z,83.78
2023-12-11T23:19:30.110Z,77.18
2023-12-11T23:21:57.263Z,73.07
2023-12-11T23:24:24.207Z,67.95
2023-12-11T23:26:51.118Z,73.50
2023-12-11T23:29:18.303Z,67.28
2023-12-11T23:31:45.468Z,64.47
2023-12-11T23:34:12.491Z,63.88
2023-12-11T23:36:39.562Z,66.25
2023-12-11T23:39:06.508Z,64.07
2023-12-11T23:41:33.458Z,57.08
2023-12-11T23:44:00.448Z,57.65
2023-12-11T23:46:27.514Z,51.22
2023-12-11T23:48:54.633Z,61.92
2023-12-11T23:51:21.649Z,68.50
2023-12-11T23:53:48.595Z,56.47
2023-12-11T23:56:15.647Z,46.97
2023-12-11T23:58:42.635Z,44.72
